Time;durP1;ratioP1;P1;durP2;ratioP2;P2;SDS_P1;SDS_P2;PMS_P1;PMS_P2;Temp;Humidity;BMP_temperature;BMP_pressure;BME280_temperature;BME280_humidity;BME280_pressure;Samples;Min_cycle;Max_cycle;Signal;HPM_P1;HPM_P2
2022/02/24 00:00:55;;;;;;;8.80;4.75;;;6.20;99.40;;;;;;5013314;28;20512;-56
2022/02/24 00:03:20;;;;;;;15.65;5.05;;;6.20;99.30;;;;;;5012743;28;20041;-54
2022/02/24 00:05:46;;;;;;;11.38;5.20;;;6.20;99.50;;;;;;5013857;28;20457;-58
2022/02/24 00:08:12;;;;;;;12.05;5.05;;;6.20;99.50;;;;;;5013444;28;20045;-57
2022/02/24 00:10:38;;;;;;;11.20;5.05;;;6.30;99.40;;;;;;5013902;28;20033;-55
2022/02/24 00:13:03;;;;;;;10.75;5.20;;;6.20;99.30;;;;;;5013360;28;20477;-56
2022/02/24 00:15:29;;;;;;;10.63;5.05;;;6.20;99.30;;;;;;5013808;28;20060;-59
2022/02/24 00:17:54;;;;;;;11.27;4.40;;;6.20;99.40;;;;;;5012763;28;20045;-57
2022/02/24 00:20:20;;;;;;;10.05;5.07;;;6.20;99.40;;;;;;5014148;28;20037;-57
2022/02/24 00:22:45;;;;;;;9.00;4.53;;;6.20;99.40;;;;;;5012137;28;20034;-57
2022/02/24 00:25:12;;;;;;;6.70;3.95;;;6.20;99.20;;;;;;5013157;28;20448;-56
2022/02/24 00:27:38;;;;;;;10.48;4.63;;;6.30;99.20;;;;;;5013282;28;20037;-58
2022/02/24 00:30:04;;;;;;;9.52;4.53;;;6.20;99.10;;;;;;5011914;28;20037;-55
2022/02/24 00:32:30;;;;;;;12.38;4.85;;;6.20;99.30;;;;;;5013067;28;20022;-58
2022/02/24 00:34:56;;;;;;;10.50;5.15;;;6.10;99.30;;;;;;5020033;28;20029;-58
2022/02/24 00:37:22;;;;;;;10.75;5.43;;;6.10;99.40;;;;;;5033610;28;20116;-57
2022/02/24 00:39:47;;;;;;;11.27;4.80;;;6.20;99.50;;;;;;5032759;28;20501;-56
2022/02/24 00:42:13;;;;;;;11.43;4.38;;;6.20;99.40;;;;;;5000725;28;20068;-57
2022/02/24 00:44:39;;;;;;;14.02;5.88;;;6.10;99.40;;;;;;5012268;28;20383;-56
2022/02/24 00:47:04;;;;;;;11.63;5.05;;;6.20;99.30;;;;;;5013824;28;20049;-57
2022/02/24 00:49:31;;;;;;;9.25;4.60;;;6.10;99.40;;;;;;5014176;28;20152;-57
2022/02/24 00:51:56;;;;;;;9.75;4.40;;;6.10;99.50;;;;;;4995706;28;20038;-58
2022/02/24 00:54:22;;;;;;;8.13;4.93;;;6.10;99.60;;;;;;5012919;28;20037;-57
2022/02/24 00:56:47;;;;;;;22.27;12.68;;;6.10;99.50;;;;;;5013719;28;20045;-57
2022/02/24 00:59:13;;;;;;;20.38;10.13;;;6.10;99.50;;;;;;5013059;28;20405;-57
2022/02/24 01:01:39;;;;;;;18.55;9.43;;;6.10;99.30;;;;;;5012985;28;20504;-55
2022/02/24 01:04:04;;;;;;;13.05;6.07;;;6.10;99.50;;;;;;5017311;28;20588;-56
2022/02/24 01:06:30;;;;;;;11.15;5.57;;;6.10;99.50;;;;;;5010864;28;20034;-58
2022/02/24 01:08:56;;;;;;;11.70;4.80;;;6.00;99.40;;;;;;5017837;28;20069;-56
2022/02/24 01:11:22;;;;;;;25.42;12.00;;;6.00;99.50;;;;;;5014869;28;20053;-58
2022/02/24 01:13:47;;;;;;;27.17;14.38;;;6.00;99.60;;;;;;5017289;28;20510;-59
2022/02/24 01:16:13;;;;;;;17.38;7.38;;;5.90;99.60;;;;;;5017488;28;20042;-55
2022/02/24 01:18:38;;;;;;;8.77;5.57;;;5.90;99.60;;;;;;5017117;28;20046;-56
2022/02/24 01:21:04;;;;;;;8.98;5.07;;;5.90;99.70;;;;;;5017222;28;20076;-56
2022/02/24 01:23:29;;;;;;;14.10;5.90;;;5.90;99.80;;;;;;5016668;28;20045;-58
2022/02/24 01:25:55;;;;;;;11.68;5.22;;;5.90;99.70;;;;;;5018367;28;20039;-56
2022/02/24 01:28:20;;;;;;;11.23;4.80;;;5.90;99.70;;;;;;5017264;28;20564;-59
2022/02/24 01:30:46;;;;;;;10.30;4.95;;;5.90;99.70;;;;;;5017242;28;20422;-58
2022/02/24 01:33:12;;;;;;;10.70;5.07;;;5.80;99.80;;;;;;5016625;28;20044;-58
2022/02/24 01:35:37;;;;;;;14.35;4.90;;;5.80;99.80;;;;;;5029111;28;20047;-57
2022/02/24 01:38:03;;;;;;;10.07;4.82;;;5.70;99.70;;;;;;5036343;28;20033;-59
2022/02/24 01:40:29;;;;;;;10.55;4.97;;;5.70;99.70;;;;;;5036157;28;20512;-58
2022/02/24 01:42:54;;;;;;;13.45;4.95;;;5.70;99.90;;;;;;5015379;28;20053;-58
2022/02/24 01:45:20;;;;;;;10.40;5.60;;;5.60;99.90;;;;;;5015101;28;20034;-55
2022/02/24 01:47:45;;;;;;;9.48;5.55;;;5.60;99.90;;;;;;4999102;28;20441;-55
2022/02/24 01:50:12;;;;;;;8.75;4.70;;;5.50;99.90;;;;;;4998929;28;20081;-57
2022/02/24 01:52:40;;;;;;;13.10;5.00;;;5.60;99.90;;;;;;5016785;28;20097;-57
2022/02/24 01:55:07;;;;;;;9.88;4.70;;;5.50;99.90;;;;;;4999152;28;20033;-57
2022/02/24 01:57:33;;;;;;;16.02;5.57;;;5.50;99.90;;;;;;5016336;28;20058;-56
2022/02/24 01:59:58;;;;;;;8.85;4.43;;;5.40;99.90;;;;;;5015916;28;20030;-56
2022/02/24 02:02:24;;;;;;;13.63;5.60;;;5.40;99.90;;;;;;5014887;28;20040;-57
2022/02/24 02:04:50;;;;;;;10.10;5.00;;;5.30;99.90;;;;;;5016059;28;20053;-57
2022/02/24 02:07:15;;;;;;;15.32;4.90;;;5.30;99.90;;;;;;5015771;28;20033;-58
2022/02/24 02:09:41;;;;;;;9.00;4.30;;;5.30;99.90;;;;;;5015512;28;20065;-59
2022/02/24 02:12:07;;;;;;;7.47;4.90;;;5.30;99.90;;;;;;5016008;28;20472;-52
2022/02/24 02:14:33;;;;;;;7.43;4.47;;;5.30;99.90;;;;;;5014704;28;20040;-56
2022/02/24 02:16:59;;;;;;;12.43;5.30;;;5.30;99.90;;;;;;4997974;28;20485;-58
2022/02/24 02:19:28;;;;;;;10.52;4.68;;;5.30;99.90;;;;;;5015572;28;20034;-57
2022/02/24 02:21:53;;;;;;;11.98;4.30;;;5.20;99.90;;;;;;4997777;28;20608;-58
2022/02/24 02:24:19;;;;;;;10.10;4.22;;;5.30;99.90;;;;;;5014738;28;20033;-58
2022/02/24 02:26:46;;;;;;;10.18;4.22;;;5.30;99.90;;;;;;5015191;28;20068;-57
2022/02/24 02:29:13;;;;;;;9.32;4.70;;;5.30;99.90;;;;;;5015285;28;20398;-59
2022/02/24 02:31:39;;;;;;;10.80;4.35;;;5.20;99.90;;;;;;5015229;28;20038;-58
2022/02/24 02:34:17;;;;;;;6.63;4.32;;;5.20;99.90;;;;;;5014951;28;20425;-53
2022/02/24 02:36:45;;;;;;;10.55;5.03;;;5.10;99.90;;;;;;5035026;28;20038;-57
2022/02/24 02:39:13;;;;;;;11.10;4.50;;;5.20;99.90;;;;;;5034890;28;20040;-55
2022/02/24 02:41:41;;;;;;;9.00;4.38;;;5.20;99.90;;;;;;5025778;28;20084;-58
2022/02/24 02:44:07;;;;;;;9.60;4.47;;;5.20;99.90;;;;;;4997652;28;20026;-58
2022/02/24 02:46:34;;;;;;;10.18;4.20;;;5.30;99.90;;;;;;5015414;28;20041;-58
2022/02/24 02:48:59;;;;;;;13.45;4.72;;;5.30;99.90;;;;;;5015138;28;20473;-56
2022/02/24 02:51:25;;;;;;;7.97;4.45;;;5.30;99.90;;;;;;5015237;28;20022;-57
2022/02/24 02:53:50;;;;;;;10.13;4.22;;;5.30;99.90;;;;;;5015512;28;20038;-55
2022/02/24 02:56:16;;;;;;;12.98;4.30;;;5.30;99.90;;;;;;5014458;28;20030;-58
2022/02/24 02:58:42;;;;;;;7.32;3.90;;;5.30;99.90;;;;;;5014956;28;20375;-58
2022/02/24 03:01:08;;;;;;;9.27;4.20;;;5.20;99.90;;;;;;5014757;28;20026;-56
2022/02/24 03:03:33;;;;;;;9.20;4.00;;;5.20;99.90;;;;;;5014568;28;20116;-58
2022/02/24 03:05:59;;;;;;;5.43;3.63;;;5.10;99.90;;;;;;5015473;28;20030;-58
2022/02/24 03:08:25;;;;;;;7.00;4.30;;;5.10;99.90;;;;;;5014878;28;20075;-57
2022/02/24 03:10:51;;;;;;;11.25;4.35;;;5.10;99.90;;;;;;5014733;28;20026;-57
2022/02/24 03:13:18;;;;;;;7.90;3.72;;;5.10;99.90;;;;;;5013806;28;20036;-57
2022/02/24 03:15:44;;;;;;;9.13;4.25;;;5.10;99.90;;;;;;5014422;28;20438;-57
2022/02/24 03:18:10;;;;;;;7.20;3.95;;;5.10;99.90;;;;;;5014047;28;20115;-58
2022/02/24 03:20:35;;;;;;;11.70;5.50;;;5.00;99.90;;;;;;5013384;28;20125;-57
2022/02/24 03:23:03;;;;;;;9.68;4.78;;;4.90;99.90;;;;;;5014452;28;20127;-57
2022/02/24 03:25:30;;;;;;;12.00;4.45;;;5.00;99.90;;;;;;5014611;28;20037;-58
2022/02/24 03:27:57;;;;;;;8.48;4.10;;;4.90;99.90;;;;;;5014898;28;20397;-57
2022/02/24 03:30:23;;;;;;;9.07;4.75;;;4.90;99.90;;;;;;5014245;28;20022;-55
2022/02/24 03:32:49;;;;;;;8.80;4.78;;;4.90;99.90;;;;;;5013705;28;20022;-58
2022/02/24 03:35:16;;;;;;;10.48;4.30;;;5.00;99.90;;;;;;5023266;28;20033;-55
2022/02/24 03:37:42;;;;;;;7.22;3.90;;;5.00;99.90;;;;;;5034799;28;20064;-59
2022/02/24 03:40:08;;;;;;;20.55;7.47;;;5.00;99.90;;;;;;5034407;28;20061;-57
2022/02/24 03:42:35;;;;;;;11.90;5.78;;;5.00;99.90;;;;;;5016078;28;20038;-55
2022/02/24 03:45:01;;;;;;;10.00;4.00;;;5.10;99.90;;;;;;5013738;28;20030;-59
2022/02/24 03:47:27;;;;;;;10.73;4.28;;;5.10;99.90;;;;;;5014299;28;20053;-58
2022/02/24 03:49:53;;;;;;;8.90;4.47;;;5.00;99.90;;;;;;5013543;28;20086;-57
2022/02/24 03:52:19;;;;;;;13.18;4.55;;;5.10;99.90;;;;;;5013972;28;20083;-56
2022/02/24 03:54:46;;;;;;;6.85;3.72;;;5.10;99.90;;;;;;5013792;28;20053;-59
2022/02/24 03:57:12;;;;;;;10.73;4.20;;;5.10;99.90;;;;;;4997012;28;20104;-58
2022/02/24 03:59:38;;;;;;;12.73;4.93;;;5.10;99.90;;;;;;5014122;28;20301;-58
2022/02/24 04:02:04;;;;;;;12.70;4.95;;;5.10;99.90;;;;;;5013368;28;20026;-58
2022/02/24 04:04:30;;;;;;;11.00;3.85;;;5.20;99.90;;;;;;5013681;28;20036;-60
2022/02/24 04:06:56;;;;;;;9.68;4.60;;;5.20;99.90;;;;;;5013634;28;20466;-55
2022/02/24 04:09:22;;;;;;;15.15;4.75;;;5.20;99.90;;;;;;5014059;28;20061;-53
2022/02/24 04:11:48;;;;;;;9.23;4.45;;;5.20;99.90;;;;;;5013661;28;20044;-58
2022/02/24 04:14:14;;;;;;;8.82;4.05;;;5.20;99.90;;;;;;5013127;28;20026;-55
2022/02/24 04:16:39;;;;;;;11.05;4.82;;;5.20;99.90;;;;;;5013904;28;20030;-58
2022/02/24 04:19:05;;;;;;;10.00;4.72;;;5.30;99.90;;;;;;5013942;28;20041;-56
2022/02/24 04:21:31;;;;;;;6.18;4.10;;;5.30;99.90;;;;;;5013240;28;20038;-58
2022/02/24 04:23:56;;;;;;;9.88;4.40;;;5.20;99.90;;;;;;5012595;28;20034;-54
2022/02/24 04:26:22;;;;;;;9.63;4.68;;;5.20;99.90;;;;;;5013615;28;20056;-57
2022/02/24 04:28:47;;;;;;;10.57;4.97;;;5.20;99.90;;;;;;5013564;28;20091;-53
2022/02/24 04:31:13;;;;;;;12.05;4.82;;;5.20;99.90;;;;;;5013445;28;20061;-56
2022/02/24 04:33:39;;;;;;;13.07;5.72;;;5.20;99.90;;;;;;5013967;28;20034;-56
2022/02/24 04:36:04;;;;;;;12.35;4.57;;;5.20;99.90;;;;;;5029868;28;20199;-57
2022/02/24 04:38:30;;;;;;;12.35;6.22;;;5.10;99.90;;;;;;5021077;28;20035;-58
2022/02/24 04:40:55;;;;;;;9.50;4.70;;;5.10;99.90;;;;;;5012970;28;20037;-58
2022/02/24 04:43:21;;;;;;;10.13;3.92;;;5.10;99.90;;;;;;5012711;28;20030;-58
2022/02/24 04:45:47;;;;;;;10.10;4.05;;;5.20;99.90;;;;;;5013370;28;20116;-57
2022/02/24 04:48:13;;;;;;;9.27;4.25;;;5.30;99.90;;;;;;4995096;28;20482;-58
2022/02/24 04:50:39;;;;;;;10.65;4.82;;;5.40;99.90;;;;;;4995077;28;20033;-59
2022/02/24 04:53:04;;;;;;;8.95;4.43;;;5.40;99.90;;;;;;5012079;28;20044;-59
2022/02/24 04:55:30;;;;;;;10.60;5.50;;;5.50;99.90;;;;;;5012873;28;20034;-55
2022/02/24 04:57:55;;;;;;;19.88;10.20;;;5.60;99.90;;;;;;5013249;28;20034;-52
2022/02/24 05:00:21;;;;;;;11.98;4.95;;;5.60;99.90;;;;;;5012887;28;20042;-58
2022/02/24 05:02:47;;;;;;;8.65;4.13;;;5.60;99.90;;;;;;5012731;28;20474;-57
2022/02/24 05:05:12;;;;;;;9.13;4.10;;;5.60;99.90;;;;;;5003798;28;20382;-57
2022/02/24 05:07:38;;;;;;;7.28;3.65;;;5.70;99.90;;;;;;5012843;28;20117;-55
2022/02/24 05:10:04;;;;;;;10.40;4.00;;;5.70;99.90;;;;;;5012595;28;20041;-57
2022/02/24 05:12:30;;;;;;;10.65;4.22;;;5.70;99.90;;;;;;5010943;28;20026;-57
2022/02/24 05:14:56;;;;;;;9.85;4.20;;;5.70;99.90;;;;;;5012936;28;20041;-57
2022/02/24 05:17:21;;;;;;;8.50;4.50;;;5.80;99.90;;;;;;5012528;28;20062;-59
2022/02/24 05:19:47;;;;;;;10.00;3.78;;;5.80;99.90;;;;;;5012505;28;20036;-60
2022/02/24 05:22:12;;;;;;;8.50;4.00;;;5.80;99.90;;;;;;5012644;28;20088;-55
2022/02/24 05:24:38;;;;;;;7.43;4.10;;;5.80;99.90;;;;;;5013254;28;20038;-55
2022/02/24 05:27:04;;;;;;;10.43;4.22;;;5.90;99.90;;;;;;5014240;28;20041;-56
2022/02/24 05:29:29;;;;;;;11.40;4.18;;;5.90;99.90;;;;;;5014250;28;20113;-59
2022/02/24 05:31:55;;;;;;;12.40;4.22;;;5.90;99.90;;;;;;5014159;28;20044;-56
2022/02/24 05:34:20;;;;;;;7.20;4.43;;;5.90;99.90;;;;;;5015292;28;20033;-59
2022/02/24 05:36:46;;;;;;;12.48;3.95;;;5.90;99.90;;;;;;5033839;28;20038;-60
2022/02/24 05:39:12;;;;;;;11.98;4.40;;;5.90;99.90;;;;;;5011810;28;20052;-59
2022/02/24 05:41:38;;;;;;;9.85;4.65;;;6.00;99.90;;;;;;4994941;28;20080;-57
2022/02/24 05:44:04;;;;;;;9.98;4.32;;;6.00;99.90;;;;;;5012350;28;20089;-58
2022/02/24 05:46:29;;;;;;;10.07;4.35;;;6.00;99.90;;;;;;5012822;28;20029;-56
2022/02/24 05:48:55;;;;;;;12.40;4.30;;;6.00;99.90;;;;;;5013992;28;20034;-57
2022/02/24 05:51:21;;;;;;;11.32;4.93;;;6.00;99.90;;;;;;5013305;28;20413;-57
2022/02/24 05:53:46;;;;;;;8.05;4.10;;;6.10;99.90;;;;;;5013051;28;20370;-59
2022/02/24 05:56:12;;;;;;;13.55;5.60;;;6.10;99.90;;;;;;5013306;28;20065;-56
2022/02/24 05:58:38;;;;;;;9.63;4.60;;;6.20;99.90;;;;;;5014632;28;20099;-58
2022/02/24 06:01:04;;;;;;;9.63;5.03;;;6.20;99.90;;;;;;5016340;28;20030;-54
2022/02/24 06:03:29;;;;;;;7.47;4.35;;;6.30;99.90;;;;;;5016006;28;20108;-58
2022/02/24 06:05:56;;;;;;;10.25;4.05;;;6.40;99.90;;;;;;5014879;28;20084;-59
2022/02/24 06:08:22;;;;;;;12.85;4.70;;;6.40;99.90;;;;;;5016155;28;20064;-59
2022/02/24 06:10:48;;;;;;;12.20;5.55;;;6.40;99.80;;;;;;5016703;28;20084;-57
2022/02/24 06:13:13;;;;;;;11.32;5.00;;;6.40;99.90;;;;;;5016225;28;20037;-57
2022/02/24 06:15:39;;;;;;;14.77;5.28;;;6.40;99.70;;;;;;5016186;28;20026;-55
2022/02/24 06:18:09;;;;;;;10.38;5.18;;;6.40;99.80;;;;;;5016032;28;20494;-57
2022/02/24 06:20:34;;;;;;;12.48;4.75;;;6.40;99.80;;;;;;5015970;28;20022;-56
2022/02/24 06:23:00;;;;;;;9.80;4.88;;;6.40;99.90;;;;;;5013685;28;20033;-57
2022/02/24 06:25:26;;;;;;;11.30;4.68;;;6.40;99.90;;;;;;5015446;28;20038;-57
2022/02/24 06:27:51;;;;;;;10.55;5.20;;;6.50;99.90;;;;;;5016613;28;20149;-59
2022/02/24 06:30:17;;;;;;;9.07;4.50;;;6.40;99.90;;;;;;5015450;28;20451;-58
2022/02/24 06:32:42;;;;;;;10.80;4.75;;;6.50;99.90;;;;;;5015783;28;20045;-57
2022/02/24 06:35:09;;;;;;;13.85;5.10;;;6.40;99.90;;;;;;5010962;28;20585;-59
2022/02/24 06:37:35;;;;;;;14.65;5.88;;;6.50;99.90;;;;;;5013197;28;20034;-52
2022/02/24 06:40:01;;;;;;;9.80;4.10;;;6.40;99.90;;;;;;5015292;28;20116;-57
2022/02/24 06:42:27;;;;;;;9.38;4.18;;;6.40;99.90;;;;;;5014951;28;20049;-56
2022/02/24 06:44:53;;;;;;;12.23;4.68;;;6.40;99.90;;;;;;5014928;28;20775;-59
2022/02/24 06:47:18;;;;;;;7.78;3.83;;;6.40;99.90;;;;;;5013507;28;20128;-58
2022/02/24 06:49:44;;;;;;;6.65;4.00;;;6.50;99.90;;;;;;4995564;28;20044;-57
2022/02/24 06:52:10;;;;;;;10.43;4.15;;;6.50;99.90;;;;;;5005918;28;20041;-55
2022/02/24 06:54:35;;;;;;;10.10;3.75;;;6.60;99.90;;;;;;5014948;28;20029;-58
2022/02/24 06:57:06;;;;;;;7.63;4.43;;;6.60;99.80;;;;;;5016737;28;20030;-61
2022/02/24 06:59:33;;;;;;;12.07;5.30;;;6.70;99.90;;;;;;5014885;28;20038;-57
2022/02/24 07:01:59;;;;;;;7.40;3.85;;;6.60;99.70;;;;;;5014690;28;20040;-56
2022/02/24 07:04:24;;;;;;;8.10;4.10;;;6.80;99.60;;;;;;5005814;28;20180;-57
2022/02/24 07:06:50;;;;;;;7.32;4.22;;;6.80;99.60;;;;;;5013983;28;20117;-59
2022/02/24 07:09:16;;;;;;;12.13;4.90;;;6.80;99.70;;;;;;5012073;28;20034;-57
2022/02/24 07:11:41;;;;;;;9.05;4.75;;;6.80;99.60;;;;;;5004915;28;20631;-58
2022/02/24 07:14:07;;;;;;;12.25;5.18;;;6.80;99.70;;;;;;5014999;28;20034;-60
2022/02/24 07:16:35;;;;;;;11.70;4.95;;;6.80;99.70;;;;;;5014702;28;20038;-57
2022/02/24 07:19:01;;;;;;;11.43;5.35;;;6.80;99.70;;;;;;5023400;28;20025;-59
2022/02/24 07:21:27;;;;;;;13.25;5.03;;;6.80;99.70;;;;;;5014674;28;20026;-57
2022/02/24 07:23:52;;;;;;;11.15;4.97;;;6.90;99.70;;;;;;5014632;28;20046;-56
2022/02/24 07:26:18;;;;;;;9.68;4.90;;;6.90;99.60;;;;;;4994413;28;20057;-60
2022/02/24 07:28:45;;;;;;;9.15;5.03;;;6.90;99.70;;;;;;5016089;28;20508;-59
2022/02/24 07:31:12;;;;;;;13.50;4.43;;;6.90;99.60;;;;;;5023277;28;20021;-59
2022/02/24 07:33:38;;;;;;;11.85;4.32;;;6.90;99.60;;;;;;5014039;28;20037;-59
2022/02/24 07:36:04;;;;;;;11.07;5.30;;;6.90;99.70;;;;;;5014904;28;20038;-59
2022/02/24 07:38:30;;;;;;;12.02;4.93;;;7.00;99.70;;;;;;5019204;28;20069;-58
2022/02/24 07:40:56;;;;;;;12.10;4.65;;;6.90;99.70;;;;;;5020975;28;20144;-55
2022/02/24 07:43:21;;;;;;;8.18;4.15;;;7.00;99.60;;;;;;5021335;28;20038;-57
2022/02/24 07:45:47;;;;;;;9.18;5.03;;;7.10;99.50;;;;;;5013394;28;20034;-59
2022/02/24 07:48:12;;;;;;;22.60;5.30;;;7.10;99.50;;;;;;5014532;28;20079;-60
2022/02/24 07:50:38;;;;;;;8.88;4.70;;;7.10;99.60;;;;;;5012749;28;20117;-59
2022/02/24 07:53:04;;;;;;;12.35;5.03;;;7.10;99.60;;;;;;5013837;28;20041;-60
2022/02/24 07:55:30;;;;;;;11.73;4.72;;;7.10;99.60;;;;;;5013100;28;20034;-56
2022/02/24 07:57:55;;;;;;;9.13;5.35;;;7.10;99.60;;;;;;5014140;28;20041;-59
2022/02/24 08:00:21;;;;;;;12.38;6.22;;;7.10;99.50;;;;;;5013474;28;20042;-59
2022/02/24 08:02:48;;;;;;;14.82;5.50;;;7.10;99.60;;;;;;5011854;28;20394;-59
2022/02/24 08:05:13;;;;;;;11.80;5.57;;;7.10;99.60;;;;;;5013758;28;20500;-56
2022/02/24 08:07:40;;;;;;;10.65;4.88;;;7.10;99.80;;;;;;5014189;28;20029;-59
2022/02/24 08:10:06;;;;;;;13.82;4.75;;;7.10;99.80;;;;;;5014269;28;20436;-59
2022/02/24 08:12:44;;;;;;;9.40;4.53;;;7.10;99.70;;;;;;5013659;28;20034;-54
2022/02/24 08:15:14;;;;;;;11.93;5.00;;;7.10;99.70;;;;;;5013530;28;20522;-55
2022/02/24 08:17:39;;;;;;;12.20;4.72;;;7.20;99.70;;;;;;5014244;28;20033;-50
2022/02/24 08:20:07;;;;;;;10.75;4.72;;;7.20;99.60;;;;;;5012868;28;20037;-51
2022/02/24 08:22:41;;;;;;;9.68;4.50;;;7.20;99.50;;;;;;5011643;28;20034;-55
2022/02/24 08:25:09;;;;;;;11.90;4.47;;;7.30;99.40;;;;;;5013523;28;20094;-54
2022/02/24 08:27:35;;;;;;;8.07;4.53;;;7.30;99.30;;;;;;5012560;28;20257;-56
2022/02/24 08:30:06;;;;;;;11.45;4.70;;;7.40;99.20;;;;;;5013560;28;20077;-55
2022/02/24 08:32:32;;;;;;;13.50;4.93;;;7.40;99.10;;;;;;5014336;28;20030;-53
2022/02/24 08:34:58;;;;;;;8.90;4.72;;;7.50;99.00;;;;;;5013219;28;20116;-55
2022/02/24 08:37:25;;;;;;;11.25;4.65;;;7.40;99.00;;;;;;5013950;28;20022;-51
2022/02/24 08:39:50;;;;;;;9.98;4.55;;;7.50;99.00;;;;;;5012489;28;20034;-51
2022/02/24 08:42:17;;;;;;;8.50;4.03;;;7.60;98.90;;;;;;5012476;28;20137;-51
2022/02/24 08:44:43;;;;;;;7.13;4.00;;;7.60;98.80;;;;;;5012962;28;20497;-48
2022/02/24 08:47:13;;;;;;;11.27;4.50;;;7.60;98.60;;;;;;5012733;28;20034;-59
2022/02/24 08:49:39;;;;;;;8.20;4.43;;;7.60;98.80;;;;;;5013074;28;20060;-53
2022/02/24 08:52:06;;;;;;;9.93;4.35;;;7.70;98.60;;;;;;5012771;28;20546;-53
2022/02/24 08:54:32;;;;;;;9.80;5.10;;;7.80;98.50;;;;;;5013394;28;20040;-55
2022/02/24 08:57:00;;;;;;;7.60;4.35;;;7.70;98.60;;;;;;5013298;28;20057;-54
2022/02/24 08:59:25;;;;;;;11.43;4.88;;;7.90;98.50;;;;;;5011760;28;20026;-58
2022/02/24 09:01:51;;;;;;;11.65;4.65;;;7.90;98.60;;;;;;5012839;28;20041;-50
2022/02/24 09:04:18;;;;;;;7.90;4.78;;;7.90;98.70;;;;;;5013008;28;20049;-54
2022/02/24 09:06:44;;;;;;;10.48;4.53;;;8.00;98.50;;;;;;5012970;28;20026;-51
2022/02/24 09:09:09;;;;;;;11.60;4.95;;;8.00;98.60;;;;;;4995582;28;20429;-52
2022/02/24 09:11:35;;;;;;;10.43;4.60;;;8.10;98.50;;;;;;5013038;28;20045;-52
2022/02/24 09:14:00;;;;;;;8.32;4.35;;;8.10;98.50;;;;;;5012610;28;20030;-52
2022/02/24 09:16:27;;;;;;;7.90;4.65;;;8.10;98.50;;;;;;5011378;28;20044;-56
2022/02/24 09:18:52;;;;;;;6.53;4.30;;;8.10;98.50;;;;;;4995660;28;20065;-57
2022/02/24 09:21:18;;;;;;;9.25;4.40;;;8.10;98.40;;;;;;5012109;28;20050;-55
2022/02/24 09:23:44;;;;;;;8.75;4.05;;;8.20;98.20;;;;;;5012359;28;20104;-53
2022/02/24 09:26:10;;;;;;;10.32;5.32;;;8.10;98.40;;;;;;5013187;28;20120;-56
2022/02/24 09:28:36;;;;;;;9.10;5.57;;;8.10;98.50;;;;;;5012941;28;20034;-53
2022/02/24 09:31:02;;;;;;;10.73;4.60;;;8.20;98.50;;;;;;5014493;28;20034;-53
2022/02/24 09:33:28;;;;;;;9.40;5.00;;;8.20;98.50;;;;;;5017107;28;20403;-53
2022/02/24 09:35:53;;;;;;;8.05;4.75;;;8.20;98.40;;;;;;5032365;28;20037;-57
2022/02/24 09:38:19;;;;;;;12.38;4.72;;;8.30;98.50;;;;;;5035636;28;20021;-58
2022/02/24 09:40:49;;;;;;;8.45;4.60;;;8.40;98.50;;;;;;5034152;28;20042;-56
2022/02/24 09:43:16;;;;;;;8.98;4.20;;;8.40;98.40;;;;;;5016735;28;20103;-52
2022/02/24 09:45:42;;;;;;;8.88;4.57;;;8.40;98.40;;;;;;4999098;28;20030;-51
2022/02/24 09:48:09;;;;;;;12.73;4.80;;;8.50;98.40;;;;;;5014453;28;20073;-55
2022/02/24 09:50:35;;;;;;;7.93;4.53;;;8.60;98.30;;;;;;5016324;28;20026;-54
2022/02/24 09:53:03;;;;;;;9.68;5.35;;;8.60;98.30;;;;;;5016088;28;20036;-55
2022/02/24 09:55:29;;;;;;;13.55;5.55;;;8.60;98.20;;;;;;5016995;28;20064;-54
2022/02/24 09:57:54;;;;;;;9.77;5.57;;;8.70;98.20;;;;;;5016630;28;20069;-56
2022/02/24 10:00:20;;;;;;;27.17;6.93;;;8.60;98.20;;;;;;5015986;28;20042;-55
2022/02/24 10:02:47;;;;;;;9.40;5.78;;;8.70;98.20;;;;;;5015835;28;20049;-54
2022/02/24 10:05:14;;;;;;;10.02;4.80;;;8.80;98.00;;;;;;5014558;28;20504;-53
2022/02/24 10:07:41;;;;;;;13.77;5.68;;;8.70;97.80;;;;;;5016440;28;20030;-54
2022/02/24 10:10:31;;;;;;;9.27;5.03;;;8.70;97.70;;;;;;5016915;28;20497;-51
2022/02/24 10:13:13;;;;;;;13.68;6.40;;;8.70;97.70;;;;;;5016804;28;20029;-54
2022/02/24 10:15:44;;;;;;;7.75;5.03;;;8.70;97.70;;;;;;4998864;28;20156;-52
2022/02/24 10:18:15;;;;;;;9.15;5.70;;;8.70;97.70;;;;;;5015908;28;20030;-54
2022/02/24 10:20:57;;;;;;;7.95;4.78;;;8.80;97.60;;;;;;5016215;28;20034;-52
2022/02/24 10:23:34;;;;;;;8.45;5.18;;;8.90;97.50;;;;;;5015716;28;20080;-56
2022/02/24 10:26:13;;;;;;;10.80;5.20;;;8.90;97.70;;;;;;5015370;28;20453;-57
2022/02/24 10:28:42;;;;;;;9.82;5.57;;;9.00;97.70;;;;;;5015404;28;20030;-52
2022/02/24 10:31:22;;;;;;;10.15;5.47;;;9.00;97.60;;;;;;5017165;28;20029;-53
2022/02/24 10:33:51;;;;;;;8.45;5.20;;;9.10;97.70;;;;;;4998070;28;20490;-56
2022/02/24 10:36:25;;;;;;;13.07;5.97;;;9.20;97.40;;;;;;5015081;28;20049;-54
2022/02/24 10:39:11;;;;;;;8.80;5.20;;;9.30;97.20;;;;;;5017121;28;20030;-51
2022/02/24 10:41:42;;;;;;;10.48;4.93;;;9.30;97.10;;;;;;5016409;28;20482;-57
2022/02/24 10:44:19;;;;;;;12.50;5.13;;;9.40;97.50;;;;;;5014123;28;20517;-53
2022/02/24 10:46:54;;;;;;;13.23;5.28;;;9.50;97.20;;;;;;5017038;28;20026;-54
2022/02/24 10:49:28;;;;;;;14.43;5.05;;;9.60;97.00;;;;;;5016132;28;20071;-51
2022/02/24 10:52:13;;;;;;;20.92;6.25;;;9.60;97.00;;;;;;5015253;28;20041;-55
2022/02/24 10:54:39;;;;;;;9.70;4.75;;;9.60;96.90;;;;;;4998205;28;20083;-52
2022/02/24 10:57:35;;;;;;;12.20;4.43;;;9.50;96.70;;;;;;5015413;28;20030;-52
2022/02/24 11:00:01;;;;;;;12.73;4.63;;;9.70;96.50;;;;;;4990199;28;20034;-50
2022/02/24 11:02:28;;;;;;;9.45;5.22;;;9.70;96.60;;;;;;5014637;28;20045;-52
2022/02/24 11:04:54;;;;;;;10.77;5.70;;;9.70;96.50;;;;;;5014800;28;20034;-52
2022/02/24 11:07:20;;;;;;;7.25;3.97;;;9.80;96.40;;;;;;5015342;28;20042;-54
2022/02/24 11:09:50;;;;;;;12.73;5.18;;;9.90;96.10;;;;;;5015272;28;20042;-55
2022/02/24 11:12:17;;;;;;;8.48;4.47;;;9.80;96.20;;;;;;5016267;28;20378;-55
2022/02/24 11:14:46;;;;;;;6.50;3.97;;;9.80;96.10;;;;;;5015222;28;20131;-55
2022/02/24 11:17:13;;;;;;;8.00;4.25;;;10.00;96.10;;;;;;5014797;28;20042;-57
2022/02/24 11:19:43;;;;;;;5.45;4.47;;;10.00;95.80;;;;;;5014805;28;20046;-53
2022/02/24 11:22:09;;;;;;;8.18;4.22;;;10.20;95.60;;;;;;5014303;28;20092;-51
2022/02/24 11:24:37;;;;;;;11.15;4.78;;;10.30;95.40;;;;;;5014424;28;20033;-53
2022/02/24 11:27:16;;;;;;;6.80;4.45;;;10.20;95.20;;;;;;5014567;28;20502;-54
2022/02/24 11:30:19;;;;;;;8.43;3.80;;;10.20;95.40;;;;;;4996880;28;20048;-56
2022/02/24 11:32:46;;;;;;;8.93;4.15;;;10.30;95.30;;;;;;4982977;28;20389;-52
2022/02/24 11:35:14;;;;;;;6.80;4.10;;;10.40;95.30;;;;;;5023225;28;20075;-55
2022/02/24 11:37:47;;;;;;;7.90;4.07;;;10.60;94.60;;;;;;5034191;28;20385;-54
2022/02/24 11:40:22;;;;;;;7.45;4.13;;;10.80;94.50;;;;;;5033792;28;20060;-54
2022/02/24 11:43:08;;;;;;;9.80;3.83;;;10.60;94.40;;;;;;5015358;28;20109;-56
2022/02/24 11:45:45;;;;;;;7.63;4.32;;;10.60;94.60;;;;;;5014149;28;20153;-56
2022/02/24 11:48:19;;;;;;;9.23;3.90;;;10.60;94.60;;;;;;5014683;28;20042;-57
2022/02/24 11:50:59;;;;;;;8.30;3.87;;;10.70;94.40;;;;;;5014715;28;20034;-54
2022/02/24 11:53:27;;;;;;;9.27;3.58;;;10.50;94.60;;;;;;5013484;28;20558;-52
2022/02/24 11:55:58;;;;;;;8.25;4.03;;;10.60;94.70;;;;;;5015139;28;20029;-54
2022/02/24 11:58:42;;;;;;;9.57;4.15;;;10.70;94.30;;;;;;5014073;28;20117;-51
2022/02/24 12:01:24;;;;;;;8.73;4.10;;;10.70;94.30;;;;;;4996849;28;20044;-52
2022/02/24 12:04:11;;;;;;;6.75;3.63;;;10.60;94.40;;;;;;5013708;28;20137;-51
2022/02/24 12:06:43;;;;;;;8.32;3.90;;;10.70;94.20;;;;;;5004044;28;20038;-51
2022/02/24 12:09:20;;;;;;;6.43;3.95;;;10.70;94.10;;;;;;5015015;28;20034;-49
2022/02/24 12:11:47;;;;;;;7.63;4.43;;;10.80;94.30;;;;;;5014976;28;20025;-54
2022/02/24 12:14:19;;;;;;;7.28;4.20;;;10.80;94.00;;;;;;5013877;28;20367;-52
2022/02/24 12:17:03;;;;;;;9.55;3.90;;;10.80;94.10;;;;;;5014490;28;20037;-53
2022/02/24 12:19:44;;;;;;;12.40;4.05;;;10.70;93.70;;;;;;5015058;28;20513;-51
2022/02/24 12:22:36;;;;;;;12.63;4.68;;;10.80;93.80;;;;;;4995666;28;20115;-54
2022/02/24 12:25:13;;;;;;;9.40;4.50;;;10.90;93.70;;;;;;5014555;28;20030;-49
2022/02/24 12:27:40;;;;;;;13.57;4.38;;;10.90;93.60;;;;;;5013885;28;20029;-53
2022/02/24 12:30:09;;;;;;;14.48;3.90;;;10.80;94.00;;;;;;5013308;28;20541;-54
2022/02/24 12:32:43;;;;;;;9.45;4.07;;;10.80;94.10;;;;;;5014231;28;20032;-53
2022/02/24 12:35:11;;;;;;;10.38;4.63;;;10.70;94.20;;;;;;5022915;28;20532;-52
2022/02/24 12:37:39;;;;;;;9.82;4.00;;;10.80;94.30;;;;;;5034501;28;20500;-53
2022/02/24 12:40:05;;;;;;;16.73;3.90;;;10.80;94.00;;;;;;5034154;28;20026;-56
2022/02/24 12:42:32;;;;;;;8.93;3.90;;;10.80;93.80;;;;;;5015898;28;20565;-55
2022/02/24 12:44:59;;;;;;;7.25;3.88;;;10.80;93.90;;;;;;5013377;28;20087;-53
2022/02/24 12:47:28;;;;;;;11.13;4.20;;;10.80;93.90;;;;;;5012330;28;20599;-52
2022/02/24 12:49:57;;;;;;;10.23;3.90;;;10.90;94.00;;;;;;5013010;28;20042;-57
2022/02/24 12:52:29;;;;;;;6.90;3.72;;;10.80;94.00;;;;;;5013075;28;20026;-51